createdAt,value
2018-07-06T00:00:26.683Z,17.65
2018-07-06T00:03:13.068Z,17.59
2018-07-06T00:05:59.653Z,17.56
2018-07-06T00:08:46.531Z,17.48
2018-07-06T00:11:32.892Z,17.40
2018-07-06T00:14:19.235Z,17.51
2018-07-06T00:17:05.679Z,17.53
2018-07-06T00:19:52.059Z,17.55
2018-07-06T00:22:38.591Z,17.58
2018-07-06T00:25:25.035Z,17.63
2018-07-06T00:28:11.735Z,17.66
2018-07-06T00:30:58.159Z,17.72
2018-07-06T00:33:44.538Z,17.75
2018-07-06T00:36:30.904Z,17.68
2018-07-06T00:39:17.153Z,17.66
2018-07-06T00:42:03.499Z,17.63
2018-07-06T00:44:49.935Z,17.66
2018-07-06T00:47:36.270Z,17.58
2018-07-06T00:50:22.691Z,17.53
2018-07-06T00:53:09.254Z,17.52
2018-07-06T00:55:55.859Z,17.39
2018-07-06T00:58:42.311Z,17.15
2018-07-06T01:01:28.961Z,17.16
2018-07-06T01:04:15.713Z,17.00
2018-07-06T01:07:02.396Z,16.87
2018-07-06T01:09:48.747Z,16.80
2018-07-06T01:12:40.379Z,16.70
2018-07-06T01:15:35.866Z,16.62
2018-07-06T01:18:22.202Z,16.57
2018-07-06T01:21:08.594Z,16.53
2018-07-06T01:23:55.166Z,16.36
2018-07-06T01:26:41.402Z,16.31
2018-07-06T01:29:27.771Z,16.17
2018-07-06T01:32:14.504Z,15.99
2018-07-06T01:35:00.783Z,15.87
2018-07-06T01:37:47.212Z,15.75
2018-07-06T01:40:33.547Z,15.57
2018-07-06T01:43:19.852Z,15.56
2018-07-06T01:46:06.275Z,15.55
2018-07-06T01:48:53.107Z,15.43
2018-07-06T01:51:39.543Z,15.43
2018-07-06T01:54:26.100Z,15.34
2018-07-06T01:57:12.543Z,15.21
2018-07-06T01:59:58.954Z,15.22
2018-07-06T02:02:45.319Z,15.27
2018-07-06T02:05:32.671Z,15.35
2018-07-06T02:08:19.111Z,15.32
2018-07-06T02:11:05.527Z,15.27
2018-07-06T02:13:52.003Z,15.23
2018-07-06T02:16:38.564Z,15.19
2018-07-06T02:19:25.060Z,15.14
2018-07-06T02:22:11.452Z,15.14
2018-07-06T02:24:57.847Z,15.09
2018-07-06T02:27:44.724Z,15.01
2018-07-06T02:30:31.427Z,14.89
2018-07-06T02:33:17.839Z,14.85
2018-07-06T02:36:04.231Z,14.85
2018-07-06T02:38:53.131Z,14.67
2018-07-06T02:41:39.475Z,14.59
2018-07-06T02:44:26.395Z,14.55
2018-07-06T02:47:13.079Z,14.37
2018-07-06T02:49:59.956Z,14.32
2018-07-06T02:52:46.710Z,14.18
2018-07-06T02:55:33.188Z,14.13
2018-07-06T02:58:20.621Z,14.00
2018-07-06T03:01:08.047Z,13.94
2018-07-06T03:03:54.459Z,13.93
2018-07-06T03:06:40.822Z,13.95
2018-07-06T03:09:27.232Z,13.99
2018-07-06T03:12:13.979Z,13.99
2018-07-06T03:15:00.463Z,14.01
2018-07-06T03:17:46.836Z,13.90
2018-07-06T03:20:33.215Z,13.83
2018-07-06T03:23:19.589Z,13.72
2018-07-06T03:26:06.611Z,13.72
2018-07-06T03:28:52.903Z,13.71
2018-07-06T03:31:39.199Z,13.66
2018-07-06T03:34:25.936Z,13.63
2018-07-06T03:37:12.302Z,13.60
2018-07-06T03:39:59.715Z,13.64
2018-07-06T03:42:46.093Z,13.75
2018-07-06T03:45:32.582Z,13.77
2018-07-06T03:48:19.273Z,13.71
2018-07-06T03:51:05.688Z,13.67
2018-07-06T03:53:52.079Z,13.73
2018-07-06T03:56:38.363Z,13.77
2018-07-06T03:59:25.007Z,13.82
2018-07-06T04:02:11.347Z,13.90
2018-07-06T04:04:57.653Z,13.86
2018-07-06T04:07:44.019Z,13.87
2018-07-06T04:10:30.562Z,14.02
2018-07-06T04:13:16.904Z,13.97
2018-07-06T04:16:03.444Z,14.10
2018-07-06T04:18:49.900Z,14.07
2018-07-06T04:21:36.427Z,14.20
2018-07-06T04:24:22.875Z,14.29
2018-07-06T04:27:10.015Z,14.49
2018-07-06T04:29:56.388Z,14.79
2018-07-06T04:32:42.795Z,14.86
2018-07-06T04:35:29.259Z,14.98
2018-07-06T04:38:15.652Z,14.93
2018-07-06T04:41:01.916Z,14.98
2018-07-06T04:43:48.263Z,15.15
2018-07-06T04:46:34.879Z,15.26
2018-07-06T04:49:21.319Z,15.55
2018-07-06T04:52:07.963Z,15.57
2018-07-06T04:54:54.302Z,15.87
2018-07-06T04:57:40.693Z,16.28
2018-07-06T05:00:28.106Z,16.71
2018-07-06T05:03:14.523Z,17.02
2018-07-06T05:06:00.883Z,17.34
2018-07-06T05:08:47.723Z,17.33
2018-07-06T05:11:34.387Z,17.19
2018-07-06T05:14:20.934Z,17.30
2018-07-06T05:17:07.373Z,17.05
2018-07-06T05:19:54.147Z,16.80
2018-07-06T05:22:40.628Z,16.93
2018-07-06T05:25:27.000Z,17.36
2018-07-06T05:28:13.335Z,17.42
2018-07-06T05:30:59.810Z,17.23
2018-07-06T05:33:46.175Z,17.33
2018-07-06T05:36:32.588Z,17.42
2018-07-06T05:39:18.963Z,17.23
2018-07-06T05:42:05.307Z,17.41
2018-07-06T05:44:51.822Z,17.95
2018-07-06T05:47:38.539Z,18.18
2018-07-06T05:50:24.858Z,18.27
2018-07-06T05:53:11.239Z,18.10
2018-07-06T05:55:57.963Z,17.95
2018-07-06T05:58:44.467Z,18.44
2018-07-06T06:01:30.857Z,19.04
2018-07-06T06:04:17.272Z,19.63
2018-07-06T06:07:03.758Z,19.83
2018-07-06T06:09:39.275Z,20.13
2018-07-06T06:12:08.458Z,20.56
2018-07-06T06:14:37.595Z,20.43
2018-07-06T06:17:07.008Z,20.25
2018-07-06T06:19:36.426Z,20.48
2018-07-06T06:22:05.775Z,21.07
2018-07-06T06:24:35.075Z,20.92
2018-07-06T06:27:04.255Z,21.31
2018-07-06T06:29:33.788Z,21.07
2018-07-06T06:32:03.863Z,21.23
2018-07-06T06:34:33.078Z,21.23
2018-07-06T06:37:02.831Z,20.68
2018-07-06T06:39:32.679Z,21.21
2018-07-06T06:42:02.152Z,21.61
2018-07-06T06:44:31.467Z,21.11
2018-07-06T06:47:00.955Z,21.00
2018-07-06T06:49:31.215Z,20.62
2018-07-06T06:52:00.687Z,20.62
2018-07-06T06:54:30.219Z,20.32
2018-07-06T06:56:59.435Z,20.64
2018-07-06T06:59:28.674Z,21.35
2018-07-06T07:01:57.960Z,22.23
2018-07-06T07:04:27.195Z,21.78
2018-07-06T07:06:56.416Z,22.14
2018-07-06T07:09:25.840Z,21.80
2018-07-06T07:11:55.039Z,21.66
2018-07-06T07:14:24.273Z,21.66
2018-07-06T07:16:53.855Z,22.84
2018-07-06T07:19:23.063Z,23.29
2018-07-06T07:21:52.251Z,22.90
2018-07-06T07:24:21.470Z,23.29
2018-07-06T07:26:50.839Z,24.79
2018-07-06T07:29:20.081Z,23.70
2018-07-06T07:31:49.262Z,24.31
2018-07-06T07:34:18.518Z,23.89
2018-07-06T07:36:47.936Z,23.80
2018-07-06T07:39:17.119Z,23.77
2018-07-06T07:41:46.307Z,23.18
2018-07-06T07:44:15.530Z,22.57
2018-07-06T07:46:44.729Z,23.72
2018-07-06T07:49:13.912Z,22.27
2018-07-06T07:51:57.120Z,21.98
2018-07-06T07:54:28.753Z,21.85
2018-07-06T07:56:58.878Z,22.53
2018-07-06T07:59:29.635Z,22.84
2018-07-06T08:01:59.803Z,25.19
2018-07-06T08:04:28.971Z,25.66
2018-07-06T08:06:58.393Z,25.17
2018-07-06T08:09:27.710Z,26.44
2018-07-06T08:11:58.359Z,27.09
2018-07-06T08:14:27.633Z,29.07
2018-07-06T08:16:56.938Z,28.38
2018-07-06T08:19:26.143Z,28.44
2018-07-06T08:21:55.451Z,29.28
2018-07-06T08:24:24.615Z,28.69
2018-07-06T08:26:53.807Z,29.12
2018-07-06T08:29:22.951Z,30.41
2018-07-06T08:31:52.135Z,30.55
2018-07-06T08:34:32.594Z,29.91
2018-07-06T08:37:25.843Z,30.09
2018-07-06T08:39:55.936Z,30.05
2018-07-06T08:42:26.446Z,29.93
2018-07-06T08:44:56.497Z,31.70
2018-07-06T08:47:26.291Z,31.52
2018-07-06T08:49:56.422Z,30.64
2018-07-06T08:52:25.668Z,30.94
2018-07-06T08:54:54.846Z,31.55
2018-07-06T08:57:25.059Z,31.32
2018-07-06T08:59:54.599Z,31.42
2018-07-06T09:02:24.371Z,32.23
2018-07-06T09:04:54.364Z,31.62
2018-07-06T09:07:24.199Z,31.66
2018-07-06T09:09:54.119Z,31.59
2018-07-06T09:12:23.598Z,30.80
2018-07-06T09:14:52.507Z,31.66
2018-07-06T09:17:22.023Z,31.51
2018-07-06T09:19:51.876Z,31.98
2018-07-06T09:22:21.667Z,33.78
2018-07-06T09:24:51.959Z,34.61
2018-07-06T09:27:21.640Z,33.75
2018-07-06T09:29:51.027Z,35.47
2018-07-06T09:32:20.563Z,33.95
2018-07-06T09:34:50.020Z,31.91
2018-07-06T09:37:19.240Z,30.54
2018-07-06T09:39:49.205Z,32.80
2018-07-06T09:42:18.878Z,33.15
2018-07-06T09:44:48.056Z,32.97
2018-07-06T09:47:18.027Z,33.26
2018-07-06T09:49:47.220Z,34.06
2018-07-06T09:52:16.592Z,33.49
2018-07-06T09:54:45.903Z,33.06
2018-07-06T09:57:15.124Z,33.23
2018-07-06T09:59:44.318Z,34.02
2018-07-06T10:02:13.506Z,31.63
2018-07-06T10:04:42.699Z,32.38
2018-07-06T10:07:11.892Z,34.08
2018-07-06T10:09:41.069Z,34.62
2018-07-06T10:12:10.543Z,35.95
2018-07-06T10:14:40.087Z,34.74
2018-07-06T10:17:09.584Z,34.13
2018-07-06T10:19:39.132Z,34.87
2018-07-06T10:22:08.251Z,35.01
2018-07-06T10:24:37.866Z,35.04
2018-07-06T10:27:07.042Z,34.34
2018-07-06T10:29:42.179Z,32.60
2018-07-06T10:32:20.602Z,32.60
2018-07-06T10:34:49.804Z,33.17
2018-07-06T10:37:20.248Z,34.91
2018-07-06T10:39:50.124Z,36.02
2018-07-06T10:42:19.532Z,35.83
2018-07-06T10:44:48.689Z,35.40
2018-07-06T10:47:18.385Z,35.28
2018-07-06T10:49:47.583Z,32.68
2018-07-06T10:52:17.796Z,33.24
2018-07-06T10:54:47.481Z,34.34
2018-07-06T10:57:16.705Z,33.46
2018-07-06T10:59:46.354Z,33.72
2018-07-06T11:02:15.523Z,33.63
2018-07-06T11:04:44.734Z,33.03
2018-07-06T11:07:13.927Z,33.62
2018-07-06T11:09:43.110Z,34.47
2018-07-06T11:12:12.291Z,34.43
2018-07-06T11:14:41.464Z,33.92
2018-07-06T11:17:10.659Z,34.40
2018-07-06T11:19:39.837Z,33.65
2018-07-06T11:22:09.039Z,33.26
2018-07-06T11:24:38.539Z,33.17
2018-07-06T11:27:07.728Z,35.16
2018-07-06T11:29:37.008Z,34.98
2018-07-06T11:32:06.474Z,34.64
2018-07-06T11:34:35.618Z,34.50
2018-07-06T11:37:04.823Z,34.82
2018-07-06T11:39:34.005Z,33.37
2018-07-06T11:42:03.215Z,33.46
2018-07-06T11:44:32.414Z,32.56
2018-07-06T11:47:01.591Z,34.06
2018-07-06T11:49:31.039Z,34.14
2018-07-06T11:52:00.215Z,34.59
2018-07-06T11:54:30.236Z,34.00
2018-07-06T11:56:59.389Z,35.22
2018-07-06T11:59:28.587Z,35.28
2018-07-06T12:01:57.908Z,33.65
2018-07-06T12:04:27.145Z,34.78
2018-07-06T12:06:56.422Z,34.42
2018-07-06T12:09:25.615Z,34.86
2018-07-06T12:11:55.024Z,35.70
2018-07-06T12:14:24.550Z,36.20
2018-07-06T12:16:53.721Z,36.32
2018-07-06T12:19:23.043Z,35.21
2018-07-06T12:21:52.235Z,36.11
2018-07-06T12:24:21.408Z,35.85
2018-07-06T12:26:50.599Z,35.79
2018-07-06T12:29:19.779Z,34.98
2018-07-06T12:31:49.070Z,35.74
2018-07-06T12:34:18.275Z,35.40
2018-07-06T12:36:47.532Z,35.78
2018-07-06T12:39:16.876Z,35.77
2018-07-06T12:41:46.044Z,35.97
2018-07-06T12:44:15.222Z,36.36
2018-07-06T12:46:44.511Z,36.28
2018-07-06T12:49:14.046Z,36.22
2018-07-06T12:51:43.207Z,37.13
2018-07-06T12:54:12.409Z,35.36
2018-07-06T12:56:42.580Z,34.42
2018-07-06T12:59:12.166Z,34.80
2018-07-06T13:01:41.462Z,36.22
2018-07-06T13:04:10.654Z,35.96
2018-07-06T13:06:39.847Z,35.10
2018-07-06T13:09:09.052Z,35.66
2018-07-06T13:11:38.774Z,35.21
2018-07-06T13:14:07.984Z,36.12
2018-07-06T13:16:37.167Z,33.52
2018-07-06T13:19:06.561Z,33.25
2018-07-06T13:21:36.043Z,33.22
2018-07-06T13:24:05.442Z,33.74
2018-07-06T13:26:34.624Z,33.59
2018-07-06T13:29:03.823Z,34.55
2018-07-06T13:31:33.607Z,33.35
2018-07-06T13:34:02.991Z,33.86
2018-07-06T13:36:32.187Z,33.73
2018-07-06T13:39:01.644Z,33.85
2018-07-06T13:41:30.995Z,34.81
2018-07-06T13:44:00.211Z,35.51
2018-07-06T13:46:29.612Z,33.90
2018-07-06T13:48:58.811Z,32.79
2018-07-06T13:51:28.291Z,33.65
2018-07-06T13:53:57.476Z,34.21
2018-07-06T13:56:26.659Z,34.04
2018-07-06T13:58:55.887Z,34.35
2018-07-06T14:01:25.079Z,34.59
2018-07-06T14:03:54.451Z,34.09
2018-07-06T14:06:23.651Z,32.45
2018-07-06T14:08:53.188Z,33.17
2018-07-06T14:11:22.613Z,34.42
2018-07-06T14:13:52.155Z,34.82
2018-07-06T14:16:21.371Z,34.29
2018-07-06T14:18:50.563Z,34.00
2018-07-06T14:21:19.767Z,34.00
2018-07-06T14:23:48.955Z,33.48
2018-07-06T14:26:18.127Z,33.48
2018-07-06T14:28:48.631Z,33.09
2018-07-06T14:31:18.052Z,33.45
2018-07-06T14:33:47.579Z,32.60
2018-07-06T14:36:17.135Z,31.96
2018-07-06T14:38:46.448Z,32.15
2018-07-06T14:41:15.671Z,32.25
2018-07-06T14:43:44.842Z,31.55
2018-07-06T14:46:14.008Z,30.70
2018-07-06T14:48:43.234Z,30.16
2018-07-06T14:51:12.430Z,30.94
2018-07-06T14:53:41.659Z,30.76
2018-07-06T14:56:10.855Z,31.19
2018-07-06T14:58:40.211Z,30.84
2018-07-06T15:01:09.427Z,29.84
2018-07-06T15:03:38.651Z,30.20
2018-07-06T15:06:07.829Z,30.67
2018-07-06T15:08:37.003Z,30.09
2018-07-06T15:11:06.214Z,30.35
2018-07-06T15:13:35.387Z,30.00
2018-07-06T15:16:04.747Z,29.39
2018-07-06T15:18:33.852Z,29.70
2018-07-06T15:21:03.080Z,29.56
2018-07-06T15:23:32.235Z,29.48
2018-07-06T15:26:01.507Z,29.04
2018-07-06T15:28:30.688Z,28.58
2018-07-06T15:30:59.867Z,29.05
2018-07-06T15:33:29.047Z,28.12
2018-07-06T15:35:58.252Z,27.40
2018-07-06T15:38:27.423Z,27.84
2018-07-06T15:40:56.647Z,27.86
2018-07-06T15:43:25.827Z,28.45
2018-07-06T15:45:55.041Z,28.32
2018-07-06T15:48:24.227Z,28.59
2018-07-06T15:50:53.654Z,28.25
2018-07-06T15:53:22.835Z,29.10
2018-07-06T15:55:52.019Z,29.27
2018-07-06T15:58:21.219Z,27.93
2018-07-06T16:00:50.407Z,27.89
2018-07-06T16:03:19.583Z,28.46
2018-07-06T16:05:49.168Z,28.58
2018-07-06T16:08:18.334Z,28.00
2018-07-06T16:10:47.655Z,27.88
2018-07-06T16:13:16.819Z,28.09
2018-07-06T16:15:46.003Z,28.00
2018-07-06T16:18:15.163Z,27.75
2018-07-06T16:20:44.392Z,27.71
2018-07-06T16:23:13.631Z,27.94
2018-07-06T16:25:42.793Z,27.98
2018-07-06T16:28:12.078Z,27.71
2018-07-06T16:30:41.266Z,27.85
2018-07-06T16:33:10.414Z,28.01
2018-07-06T16:35:39.806Z,27.94
2018-07-06T16:38:09.079Z,27.31
2018-07-06T16:40:38.325Z,27.45
2018-07-06T16:43:07.795Z,27.26
2018-07-06T16:45:37.116Z,27.20
2018-07-06T16:48:06.268Z,27.18
2018-07-06T16:50:35.687Z,27.45
2018-07-06T16:53:05.507Z,27.29
2018-07-06T16:55:34.671Z,26.98
2018-07-06T16:58:03.827Z,26.34
2018-07-06T17:00:33.027Z,26.32
2018-07-06T17:03:02.187Z,26.06
2018-07-06T17:05:31.370Z,25.81
2018-07-06T17:08:00.591Z,26.26
2018-07-06T17:10:29.759Z,26.18
2018-07-06T17:12:58.950Z,26.34
2018-07-06T17:15:28.129Z,26.31
2018-07-06T17:17:57.283Z,26.21
2018-07-06T17:20:26.451Z,26.06
2018-07-06T17:22:55.610Z,26.14
2018-07-06T17:25:24.795Z,26.08
2018-07-06T17:27:53.965Z,26.27
2018-07-06T17:30:23.118Z,26.39
2018-07-06T17:32:52.280Z,26.37
2018-07-06T17:35:21.464Z,26.14
2018-07-06T17:37:50.623Z,25.78
2018-07-06T17:40:19.819Z,25.50
2018-07-06T17:42:49.007Z,25.16
2018-07-06T17:45:18.191Z,24.96
2018-07-06T17:47:47.360Z,24.90
2018-07-06T17:50:16.573Z,24.54
2018-07-06T17:52:46.087Z,24.64
2018-07-06T17:55:15.514Z,24.73
2018-07-06T17:57:44.720Z,24.76
2018-07-06T18:00:14.190Z,24.72
2018-07-06T18:02:43.651Z,24.92
2018-07-06T18:05:12.946Z,24.72
2018-07-06T18:07:42.759Z,24.71
2018-07-06T18:10:11.935Z,24.74
2018-07-06T18:12:41.119Z,24.82
2018-07-06T18:15:10.554Z,24.52
2018-07-06T18:17:39.690Z,24.55
2018-07-06T18:20:08.883Z,24.59
2018-07-06T18:22:38.126Z,24.58
2018-07-06T18:25:07.427Z,24.53
2018-07-06T18:27:36.587Z,24.69
2018-07-06T18:30:06.004Z,24.95
2018-07-06T18:32:35.154Z,24.60
2018-07-06T18:35:04.339Z,24.58
2018-07-06T18:37:33.587Z,24.51
2018-07-06T18:40:02.712Z,24.45
2018-07-06T18:42:31.959Z,24.10
2018-07-06T18:45:01.112Z,23.97
2018-07-06T18:47:30.368Z,23.76
2018-07-06T18:49:59.427Z,23.58
2018-07-06T18:52:28.607Z,23.37
2018-07-06T18:54:58.123Z,23.19
2018-07-06T18:57:27.331Z,23.14
2018-07-06T18:59:56.543Z,23.08
2018-07-06T19:02:25.743Z,22.87
2018-07-06T19:04:55.088Z,22.93
2018-07-06T19:07:24.391Z,22.86
2018-07-06T19:09:53.551Z,22.73
2018-07-06T19:12:22.739Z,22.73
2018-07-06T19:14:52.027Z,22.62
2018-07-06T19:17:21.230Z,22.37
2018-07-06T19:19:50.631Z,22.24
2018-07-06T19:22:19.831Z,21.89
2018-07-06T19:24:49.015Z,21.73
2018-07-06T19:27:18.252Z,21.44
2018-07-06T19:29:47.575Z,21.32
2018-07-06T19:32:16.741Z,20.99
2018-07-06T19:34:45.911Z,20.72
2018-07-06T19:37:15.111Z,20.35
2018-07-06T19:39:44.276Z,20.05
2018-07-06T19:42:13.455Z,19.91
2018-07-06T19:44:42.598Z,19.78
2018-07-06T19:47:11.810Z,19.69
2018-07-06T19:49:40.951Z,19.34
2018-07-06T19:52:10.127Z,19.23
2018-07-06T19:54:39.259Z,18.89
2018-07-06T19:57:08.468Z,18.72
2018-07-06T19:59:37.641Z,18.61
2018-07-06T20:02:06.970Z,18.62
2018-07-06T20:04:36.135Z,18.42
2018-07-06T20:07:05.367Z,18.30
2018-07-06T20:09:34.540Z,18.08
2018-07-06T20:12:03.711Z,17.96
2018-07-06T20:14:32.883Z,17.94
2018-07-06T20:17:02.035Z,17.88
2018-07-06T20:19:31.567Z,17.78
2018-07-06T20:22:00.767Z,17.79
2018-07-06T20:24:30.139Z,17.62
2018-07-06T20:26:59.332Z,17.49
2018-07-06T20:29:28.487Z,17.40
2018-07-06T20:31:57.675Z,17.34
2018-07-06T20:34:27.066Z,17.23
2018-07-06T20:36:56.280Z,17.02
2018-07-06T20:39:25.603Z,17.06
2018-07-06T20:41:54.803Z,16.96
2018-07-06T20:44:23.966Z,16.97
2018-07-06T20:46:53.148Z,17.13
2018-07-06T20:49:22.319Z,17.09
2018-07-06T20:51:51.595Z,16.86
2018-07-06T20:54:20.787Z,16.75
2018-07-06T20:56:54.068Z,16.63
2018-07-06T20:59:23.238Z,16.69
2018-07-06T21:01:52.720Z,16.62
2018-07-06T21:04:22.408Z,16.55
2018-07-06T21:06:51.604Z,16.48
2018-07-06T21:09:20.767Z,16.44
2018-07-06T21:11:50.210Z,16.32
2018-07-06T21:14:19.595Z,16.26
2018-07-06T21:16:48.795Z,16.30
2018-07-06T21:19:17.975Z,16.26
2018-07-06T21:21:47.190Z,16.10
2018-07-06T21:24:16.667Z,16.13
2018-07-06T21:26:46.238Z,16.09
2018-07-06T21:29:15.402Z,16.09
2018-07-06T21:31:44.603Z,16.09
2018-07-06T21:34:13.775Z,16.17
2018-07-06T21:36:43.095Z,16.09
2018-07-06T21:39:12.267Z,16.09
2018-07-06T21:41:41.459Z,15.86
2018-07-06T21:44:10.675Z,15.85
2018-07-06T21:46:39.844Z,15.82
2018-07-06T21:49:09.027Z,15.86
2018-07-06T21:51:38.196Z,15.81
2018-07-06T21:54:07.531Z,15.82
2018-07-06T21:56:36.768Z,15.85
2018-07-06T21:59:06.203Z,15.82
2018-07-06T22:01:35.395Z,15.78
2018-07-06T22:04:04.572Z,15.71
2018-07-06T22:06:33.759Z,15.74
2018-07-06T22:09:03.139Z,15.88
2018-07-06T22:11:32.307Z,15.74
2018-07-06T22:14:01.510Z,15.62
2018-07-06T22:16:31.196Z,15.60
2018-07-06T22:19:00.703Z,15.55
2018-07-06T22:21:30.318Z,15.58
2018-07-06T22:23:59.979Z,15.57
2018-07-06T22:26:29.163Z,15.61
2018-07-06T22:28:58.412Z,15.51
2018-07-06T22:31:27.567Z,15.39
2018-07-06T22:33:56.759Z,15.41
2018-07-06T22:36:25.944Z,15.39
2018-07-06T22:38:55.126Z,15.27
2018-07-06T22:41:24.629Z,15.32
2018-07-06T22:43:54.299Z,15.34
2018-07-06T22:46:24.699Z,15.29
2018-07-06T22:48:53.891Z,15.29
2018-07-06T22:51:23.102Z,15.25
2018-07-06T22:53:52.295Z,15.28
2018-07-06T22:56:21.495Z,15.16
2018-07-06T22:58:53.763Z,15.07
2018-07-06T23:01:22.942Z,15.02
2018-07-06T23:03:52.123Z,14.93
2018-07-06T23:06:21.363Z,14.94
2018-07-06T23:08:50.519Z,14.84
2018-07-06T23:11:19.687Z,14.76
2018-07-06T23:13:48.879Z,14.82
2018-07-06T23:16:18.064Z,14.74
2018-07-06T23:18:47.583Z,14.72
2018-07-06T23:21:16.776Z,14.66
2018-07-06T23:23:46.379Z,14.65
2018-07-06T23:26:15.796Z,14.69
2018-07-06T23:28:44.991Z,14.77
2018-07-06T23:31:14.183Z,14.73
2018-07-06T23:33:43.378Z,14.70
2018-07-06T23:36:12.579Z,14.61
2018-07-06T23:38:41.819Z,14.67
2018-07-06T23:41:11.429Z,14.74
2018-07-06T23:43:40.631Z,14.80
2018-07-06T23:46:09.802Z,14.77
2018-07-06T23:48:39.042Z,14.87
2018-07-06T23:51:08.223Z,14.82
2018-07-06T23:53:37.431Z,14.72
2018-07-06T23:56:06.616Z,14.69
2018-07-06T23:58:35.835Z,14.65
